Aeroporto :
LOGIN :

Iscrizione | Disclaimer

   EN    FR    IT 

 










Sommario :    VFR   VFR Marginale   IFR   IFR Intensivo   IFR Molto Intensivo
Visibilità : 
Base nubi : 
>= 8 km
>= 3000ft
5 / 8 km
1000 / 3000 ft
1500m / 5 km
500 / 1000 ft
800 / 1500m
200 / 500 ft
< 800m
< 200 ft
Simboli :   Temporali  Nebbia  Neve Forte  Precipitazioni Forti  Vento > 20 kt
SIGMETs :   Varie  Temporali  Ghiacco  Turbolenza  Onda orograficha  Ceneri Vulcaniche






- Altitudine del aeroporto : 19 ft
- Codice IATA : LCY


EGLC - London City

ULTIMO METAR :
  • 240550Z AUTO 23004KT 160V280 8000 -RA BKN006 BKN010 OVC019 07/06 Q1015

METARs OBSOLETI :
  • 240520Z AUTO 13009KT 7000 -RA BKN005 BKN009 OVC019 07/06 Q1016 RERA REDZ
  • 240450Z AUTO 12007KT 4200 RADZ BKN004 OVC011 06/06 Q1017 RERA
  • 240420Z AUTO 11008KT 4200 RADZ BKN005 OVC016 06/05 Q1018 RERA
  • 240350Z AUTO 11008KT 2600 RA BKN007/// OVC024/// //////TCU 06/05 Q1019 REDZ
  • 240320Z AUTO 12006KT 9999 -RA SCT018/// BKN026/// OVC031/// //////TCU 07/05 Q1020 RERA

TAF AMD TAF EGLC
Valido dal 24 a 06 ore il 24 a 15 ore UTC


240612Z 2406/2415 15006KT 9999 BKN006
TEMPO 2406/2408 5000 -DZ
PROB30
TEMPO 2406/2408 3000 DZ BKN003
BECMG 2407/2409 23020G30KT SCT012
TEMPO 2409/2415 4000 RA BKN009
ATIS : +44 20 7646 0224



MetMap, La meteo Aeronautica in un colpo d'occhio ! - Copyright ORBIFLY Dicembre 2007 - Disclaimer

ORBIFLY MET'MAP TEAM :

Programmazione e sviluppo : Alexandra Zaïnal
Concezione : Baudouin d'Aumeries
Aiuto per la programmazione : Marc-Olivier Méhu
Supporto tecnico e logistico : Manuel Goepfert
Aiuto per la traduzione : Arnaldo La Scala

Contatto : metmap@orbifly.com




FONTI E CREDITI :

   NOAA